ENAL/AES METAR and TAF weather

Enter ICAO airport designator
Station Type Date Time Source
ENAL METAR 2019/04/26 04:20 UTC NOAA

ENAL 260420Z 08005KT 030V120 CAVOK 09/07 Q1012


Station Type Date Time Source
ENAL Decoded METAR 2019/04/26 04:20 UTC NOAA

Alesund / Vigra, Norway (ENAL) 62-34N 006-07E 22M
Apr 26, 2019 - 12:20 AM EDT / 2019.04.26 0420 UTC
Wind: from the E (080 degrees) at 6 MPH (5 KT) (direction variable):0
Visibility: greater than 7 mile(s):0
Temperature: 48 F (9 C)
Dew Point: 44 F (7 C)
Relative Humidity: 87%
Pressure (altimeter): 29.88 in. Hg (1012 hPa)
ob: ENAL 260420Z 08005KT 030V120 CAVOK 09/07 Q1012
cycle: 4

Station Type Date Time Source
ENAL TAF UTC NOAA

Error!

Example: see airport list